Time;durP1;ratioP1;P1;durP2;ratioP2;P2;SDS_P1;SDS_P2;PMS_P1;PMS_P2;Temp;Humidity;BMP_temperature;BMP_pressure;BME280_temperature;BME280_humidity;BME280_pressure;Samples;Min_cycle;Max_cycle;Signal;HPM_P1;HPM_P2
2021/12/19 00:02:20;;;;;;;10.50;7.40;;;;;;;4.34;89.52;100648.34;84520;1288;3809426;-64
2021/12/19 00:04:42;;;;;;;8.50;6.60;;;;;;;4.30;89.47;100641.38;87027;1292;82029;-64
2021/12/19 00:09:24;;;;;;;8.20;6.20;;;;;;;4.36;89.34;100623.38;87335;1289;88483;-64
2021/12/19 00:11:37;;;;;;;9.70;6.80;;;;;;;4.34;89.47;100626.72;87370;1288;95732;-64
2021/12/19 00:13:48;;;;;;;8.30;7.00;;;;;;;4.37;89.45;100632.77;87352;1288;78656;-65
2021/12/19 00:15:59;;;;;;;8.70;6.70;;;;;;;4.36;89.38;100628.71;87411;1291;80803;-63
2021/12/19 00:18:09;;;;;;;10.20;7.30;;;;;;;4.35;89.29;100628.50;87239;1292;100561;-63
2021/12/19 00:20:19;;;;;;;8.50;7.00;;;;;;;4.36;89.27;100615.58;87353;1288;87350;-61
2021/12/19 00:22:32;;;;;;;8.30;6.90;;;;;;;4.35;89.32;100610.05;87392;1288;94210;-64
2021/12/19 00:24:45;;;;;;;8.80;6.40;;;;;;;4.37;89.26;100600.10;87342;1289;81547;-64
2021/12/19 00:26:58;;;;;;;9.00;6.50;;;;;;;4.34;89.06;100593.06;87357;1291;81682;-65
2021/12/19 00:29:09;;;;;;;9.60;6.40;;;;;;;4.31;89.18;100589.42;87348;1288;99356;-67
2021/12/19 00:31:21;;;;;;;9.60;7.00;;;;;;;4.29;89.17;100594.14;87358;1291;88784;-63
2021/12/19 00:33:34;;;;;;;9.10;6.80;;;;;;;4.29;89.10;100586.95;87339;1287;93931;-65
2021/12/19 00:35:46;;;;;;;7.50;5.70;;;;;;;4.26;89.07;100574.72;87345;1291;80231;-65
2021/12/19 00:37:59;;;;;;;8.20;6.20;;;;;;;4.25;89.14;100560.77;87388;1288;82829;-63
2021/12/19 00:40:13;;;;;;;7.70;6.00;;;;;;;4.31;89.03;100558.81;87365;1284;98274;-63
2021/12/19 00:42:37;;;;;;;7.70;6.10;;;;;;;4.33;88.95;100553.65;87391;1288;88296;-65
2021/12/19 00:44:50;;;;;;;7.50;5.40;;;;;;;4.34;88.90;100549.74;87377;1291;94602;-64
2021/12/19 00:47:07;;;;;;;7.70;5.50;;;;;;;4.35;88.88;100545.00;87287;1291;81274;-65
2021/12/19 00:49:18;;;;;;;7.30;5.40;;;;;;;4.37;88.98;100536.52;87339;1288;80858;-64
2021/12/19 00:51:28;;;;;;;7.20;5.00;;;;;;;4.35;88.80;100535.02;87349;1291;99858;-62
2021/12/19 00:53:39;;;;;;;5.90;5.10;;;;;;;4.34;88.83;100540.66;87386;1285;85694;-62
2021/12/19 00:55:51;;;;;;;6.20;5.10;;;;;;;4.32;88.84;100543.38;87348;1288;93286;-62
2021/12/19 00:58:00;;;;;;;6.80;5.40;;;;;;;4.31;88.81;100540.27;87349;1286;79375;-63
2021/12/19 01:00:17;;;;;;;6.10;4.90;;;;;;;4.30;88.80;100541.02;87411;1288;83217;-64
2021/12/19 01:02:26;;;;;;;6.20;5.10;;;;;;;4.26;88.96;100537.02;87378;1288;97794;-64
2021/12/19 01:04:36;;;;;;;6.10;4.80;;;;;;;4.29;88.94;100528.30;87367;1291;88758;-63
2021/12/19 01:06:47;;;;;;;6.00;4.70;;;;;;;4.32;89.01;100517.11;87349;1292;94902;-63
2021/12/19 01:09:00;;;;;;;5.80;4.30;;;;;;;4.37;88.74;100518.08;87309;1287;78912;-63
2021/12/19 01:11:10;;;;;;;5.90;4.30;;;;;;;4.40;88.78;100510.67;87353;1288;79996;-63
2021/12/19 01:13:20;;;;;;;6.30;4.80;;;;;;;4.39;88.80;100510.52;87326;1288;99488;-65
2021/12/19 01:15:30;;;;;;;5.30;4.00;;;;;;;4.36;88.83;100500.58;87370;1288;89472;-65
2021/12/19 01:17:39;;;;;;;5.30;4.20;;;;;;;4.40;88.66;100497.99;87357;1288;95697;-65
2021/12/19 01:19:48;;;;;;;5.40;3.80;;;;;;;4.40;88.83;100488.54;87370;1288;78459;-64
2021/12/19 01:21:57;;;;;;;4.40;3.40;;;;;;;4.41;88.78;100477.52;87348;1291;80582;-64
2021/12/19 01:24:07;;;;;;;5.10;3.80;;;;;;;4.45;88.76;100486.70;87322;1288;99647;-64
2021/12/19 01:26:16;;;;;;;4.90;3.20;;;;;;;4.43;88.81;100483.40;87363;1285;88028;-64
2021/12/19 01:28:28;;;;;;;4.00;3.30;;;;;;;4.44;88.84;100483.02;87348;1288;94513;-64
2021/12/19 01:30:37;;;;;;;4.00;3.40;;;;;;;4.46;88.80;100481.02;87145;1289;78285;-64
2021/12/19 01:32:47;;;;;;;4.50;3.80;;;;;;;4.44;88.85;100479.29;87352;1288;81861;-63
2021/12/19 01:34:59;;;;;;;4.90;3.30;;;;;;;4.42;88.87;100468.94;87356;1291;97878;-63
2021/12/19 01:37:08;;;;;;;4.70;3.40;;;;;;;4.39;88.94;100467.60;87369;1288;88907;-63
2021/12/19 01:39:17;;;;;;;3.90;3.30;;;;;;;4.34;89.08;100463.83;87378;1291;95116;-62
2021/12/19 01:41:29;;;;;;;4.20;3.20;;;;;;;4.33;88.92;100450.61;87369;1292;77967;-64
2021/12/19 01:43:38;;;;;;;4.60;3.20;;;;;;;4.36;89.00;100440.65;87370;1288;82081;-65
2021/12/19 01:45:47;;;;;;;4.50;3.30;;;;;;;4.36;89.05;100439.20;87331;1288;99313;-62
2021/12/19 01:47:57;;;;;;;3.60;3.20;;;;;;;4.29;88.91;100430.44;87327;1291;87236;-65
2021/12/19 01:50:11;;;;;;;4.70;3.30;;;;;;;4.32;88.90;100428.23;87257;1292;94421;-64
2021/12/19 01:52:21;;;;;;;4.10;3.00;;;;;;;4.34;88.91;100424.05;87348;1291;81621;-63
2021/12/19 01:54:34;;;;;;;4.50;3.50;;;;;;;4.33;88.91;100418.09;87364;1288;81212;-63
2021/12/19 01:56:43;;;;;;;4.60;3.10;;;;;;;4.31;88.94;100401.35;87388;1289;97121;-63
2021/12/19 01:58:55;;;;;;;4.30;3.10;;;;;;;4.32;88.97;100394.86;87364;1291;88749;-61
2021/12/19 02:01:07;;;;;;;3.60;3.00;;;;;;;4.30;89.03;100384.50;87334;1287;95079;-62
2021/12/19 02:03:20;;;;;;;4.80;3.30;;;;;;;4.31;89.05;100372.53;87317;1292;80625;-64
2021/12/19 02:05:30;;;;;;;5.80;3.20;;;;;;;4.35;89.05;100366.76;87190;1290;82680;-63
2021/12/19 02:07:44;;;;;;;4.50;3.20;;;;;;;4.37;88.96;100350.31;87401;1288;98937;-63
2021/12/19 02:09:56;;;;;;;4.10;3.20;;;;;;;4.38;89.00;100351.42;87351;1291;88834;-63
2021/12/19 02:12:10;;;;;;;4.00;3.00;;;;;;;4.37;88.98;100350.35;87368;1288;95516;-64
2021/12/19 02:14:21;;;;;;;4.30;3.20;;;;;;;4.37;89.04;100346.58;87181;1290;80562;-63
2021/12/19 02:16:30;;;;;;;2.70;2.40;;;;;;;4.39;89.02;100339.40;87347;1288;83056;-62
2021/12/19 02:18:40;;;;;;;3.90;2.90;;;;;;;4.41;88.97;100336.39;87371;1288;97126;-62
2021/12/19 02:20:53;;;;;;;3.60;2.80;;;;;;;4.44;89.02;100327.54;87358;1288;88676;-63
2021/12/19 02:23:02;;;;;;;3.20;2.30;;;;;;;4.43;88.87;100327.21;87355;1288;94196;-64
2021/12/19 02:25:15;;;;;;;5.00;2.60;;;;;;;4.45;88.96;100326.16;87200;1292;81669;-64
2021/12/19 02:27:32;;;;;;;4.10;2.60;;;;;;;4.47;88.90;100323.63;87406;1284;79785;-63
2021/12/19 02:29:44;;;;;;;3.10;2.40;;;;;;;4.47;88.99;100320.45;87370;1291;98987;-61
2021/12/19 02:31:53;;;;;;;4.00;2.80;;;;;;;4.47;89.08;100313.67;87385;1288;88579;-63
2021/12/19 02:34:13;;;;;;;3.20;2.50;;;;;;;4.46;89.13;100308.39;87354;1288;94065;-63
2021/12/19 02:36:38;;;;;;;2.80;2.20;;;;;;;4.45;89.08;100300.65;87350;1289;81246;-64
2021/12/19 02:48:56;;;;;;;3.10;2.60;;;;;;;4.46;89.19;100289.29;87207;1292;81726;-64
2021/12/19 02:51:06;;;;;;;4.50;2.40;;;;;;;4.47;89.19;100282.31;87223;1293;82769;-64
2021/12/19 02:53:22;;;;;;;2.60;2.30;;;;;;;4.41;89.18;100287.73;87165;1294;100783;-62
2021/12/19 02:55:35;;;;;;;2.50;2.10;;;;;;;4.36;89.26;100278.39;87223;1288;86292;-63
2021/12/19 02:57:45;;;;;;;3.10;2.50;;;;;;;4.36;89.30;100274.30;87359;1289;95178;-62
2021/12/19 02:59:54;;;;;;;3.20;2.50;;;;;;;4.35;89.36;100271.17;87312;1292;78591;-62
2021/12/19 03:02:03;;;;;;;3.90;2.50;;;;;;;4.39;89.28;100268.33;87366;1289;80395;-64
2021/12/19 03:04:13;;;;;;;2.80;2.20;;;;;;;4.42;89.36;100264.73;87374;1289;98011;-64
2021/12/19 03:06:22;;;;;;;2.90;2.10;;;;;;;4.45;89.37;100260.56;87371;1288;87176;-63
2021/12/19 03:08:32;;;;;;;3.10;2.20;;;;;;;4.48;89.46;100246.67;87348;1291;94804;-62
2021/12/19 03:13:27;;;;;;;3.00;2.20;;;;;;;4.49;89.40;100237.27;86770;1297;82717;-64
2021/12/19 03:18:11;;;;;;;3.30;2.50;;;;;;;4.44;89.42;100223.71;87369;1288;87536;-64
2021/12/19 03:20:20;;;;;;;3.90;2.30;;;;;;;4.44;89.60;100217.70;87176;1291;94387;-64
2021/12/19 03:22:29;;;;;;;3.40;2.50;;;;;;;4.48;89.66;100215.64;87381;1292;79463;-63
2021/12/19 03:24:38;;;;;;;3.50;1.90;;;;;;;4.49;89.58;100212.30;87332;1287;82708;-63
2021/12/19 03:26:48;;;;;;;3.10;2.20;;;;;;;4.46;89.58;100204.27;87363;1291;97882;-62
2021/12/19 03:28:57;;;;;;;4.00;2.00;;;;;;;4.47;89.67;100201.47;87355;1291;89377;-63
2021/12/19 03:31:07;;;;;;;3.40;2.20;;;;;;;4.45;89.63;100198.52;87303;1288;95387;-62
2021/12/19 03:33:17;;;;;;;2.90;2.10;;;;;;;4.46;89.71;100191.84;87318;1288;81447;-63
2021/12/19 03:35:29;;;;;;;3.00;2.40;;;;;;;4.43;89.77;100177.17;87374;1291;79647;-63
2021/12/19 03:37:42;;;;;;;3.70;2.40;;;;;;;4.48;89.79;100180.38;87345;1292;97776;-63
2021/12/19 03:40:07;;;;;;;3.10;2.00;;;;;;;4.49;89.74;100180.06;87385;1291;89105;-63
2021/12/19 03:42:16;;;;;;;3.40;1.90;;;;;;;4.50;89.81;100180.16;87383;1288;95327;-63
2021/12/19 03:44:26;;;;;;;2.70;2.10;;;;;;;4.51;89.83;100188.02;87330;1288;79387;-63
2021/12/19 03:46:36;;;;;;;3.70;2.50;;;;;;;4.50;89.94;100192.81;87344;1288;81589;-65
2021/12/19 03:48:49;;;;;;;3.10;2.30;;;;;;;4.52;89.87;100180.52;87357;1291;98446;-68
2021/12/19 03:51:00;;;;;;;2.90;2.20;;;;;;;4.50;89.90;100175.69;87227;1290;88854;-67
2021/12/19 03:53:14;;;;;;;2.80;1.70;;;;;;;4.50;90.02;100173.00;87345;1287;94259;-64
2021/12/19 03:55:25;;;;;;;3.10;2.20;;;;;;;4.51;90.06;100169.15;87350;1291;79380;-65
2021/12/19 03:57:38;;;;;;;2.70;2.10;;;;;;;4.55;89.91;100163.92;87423;1292;81925;-68
2021/12/19 03:59:49;;;;;;;2.70;1.90;;;;;;;4.56;90.08;100151.33;87348;1292;99567;-64
2021/12/19 04:01:58;;;;;;;3.50;2.00;;;;;;;4.60;90.00;100149.85;87391;1292;87657;-63
2021/12/19 04:04:08;;;;;;;2.60;2.10;;;;;;;4.63;89.89;100148.63;87358;1292;94608;-64
2021/12/19 04:06:17;;;;;;;2.70;2.10;;;;;;;4.66;89.96;100138.67;87225;1293;79915;-65
2021/12/19 04:08:26;;;;;;;2.30;1.70;;;;;;;4.66;89.98;100132.63;87256;1292;82430;-63
2021/12/19 04:10:38;;;;;;;3.20;2.20;;;;;;;4.69;89.83;100135.89;87204;1293;99194;-63
2021/12/19 04:12:52;;;;;;;3.50;2.40;;;;;;;4.72;89.85;100125.04;87367;1292;88488;-63
2021/12/19 04:15:04;;;;;;;3.00;1.60;;;;;;;4.74;89.89;100109.64;87355;1288;93792;-64
2021/12/19 04:17:17;;;;;;;2.70;2.00;;;;;;;4.80;89.98;100108.39;87345;1289;80664;-63
2021/12/19 04:19:31;;;;;;;2.70;1.80;;;;;;;4.81;89.81;100105.55;87129;1293;83397;-63
2021/12/19 04:21:40;;;;;;;2.20;1.80;;;;;;;4.84;89.88;100111.36;87386;1287;97359;-61
2021/12/19 04:23:49;;;;;;;2.40;1.90;;;;;;;4.82;89.96;100100.35;87346;1293;88225;-66
2021/12/19 04:25:58;;;;;;;3.30;2.50;;;;;;;4.82;89.96;100092.95;87354;1289;92368;-62
2021/12/19 04:28:11;;;;;;;2.70;2.10;;;;;;;4.85;90.00;100091.81;87145;1291;81680;-63
2021/12/19 04:30:26;;;;;;;3.00;1.90;;;;;;;4.82;90.03;100083.35;87390;1286;82152;-64
2021/12/19 04:32:42;;;;;;;2.10;1.70;;;;;;;4.86;90.10;100075.49;87379;1292;99693;-64
2021/12/19 04:34:54;;;;;;;2.60;1.90;;;;;;;4.85;90.05;100061.06;87156;1293;87375;-66
2021/12/19 04:37:21;;;;;;;2.60;1.90;;;;;;;4.85;90.14;100054.50;87386;1287;93259;-63
2021/12/19 04:39:40;;;;;;;2.30;2.00;;;;;;;4.90;89.93;100052.39;87128;1290;81675;-63
2021/12/19 04:42:24;;;;;;;2.70;2.00;;;;;;;4.88;90.07;100050.63;87395;1292;81672;-63
2021/12/19 04:44:44;;;;;;;2.80;1.90;;;;;;;4.86;90.26;100052.98;87343;1290;96315;-63
2021/12/19 04:54:47;;;;;;;2.90;2.10;;;;;;;4.95;90.16;100032.05;86848;1299;81882;-64
2021/12/19 04:57:08;;;;;;;3.90;2.70;;;;;;;4.95;90.28;100039.65;86903;1298;97167;-65
2021/12/19 05:04:21;;;;;;;4.70;3.10;;;;;;;4.96;90.24;100022.95;87196;1288;79764;-64
2021/12/19 05:06:52;;;;;;;6.30;3.90;;;;;;;4.96;90.35;100016.20;87364;1292;83342;-62
2021/12/19 05:16:28;;;;;;;7.10;5.60;;;;;;;4.95;90.67;100047.17;87116;1289;80218;-63
2021/12/19 05:18:39;;;;;;;7.90;4.80;;;;;;;4.96;90.61;100048.88;87357;1289;82355;-63
2021/12/19 05:20:55;;;;;;;8.30;5.60;;;;;;;4.99;90.59;100053.64;87367;1289;98733;-62
2021/12/19 05:23:11;;;;;;;8.40;6.10;;;;;;;5.02;90.64;100053.14;87322;1291;88142;-62
2021/12/19 05:25:21;;;;;;;8.20;5.80;;;;;;;5.05;90.59;100053.39;87350;1288;94426;-63
2021/12/19 05:27:30;;;;;;;8.70;5.50;;;;;;;5.09;90.66;100055.08;87390;1289;81801;-63
2021/12/19 05:29:41;;;;;;;8.90;6.30;;;;;;;5.11;90.75;100047.08;87134;1292;82971;-62
2021/12/19 05:31:49;;;;;;;6.80;5.70;;;;;;;5.12;90.69;100043.48;87342;1291;99083;-62
2021/12/19 05:33:59;;;;;;;7.90;6.30;;;;;;;5.14;90.64;100045.33;87336;1284;88233;-66
2021/12/19 05:45:58;;;;;;;9.00;6.20;;;;;;;5.20;90.72;100026.47;87365;1290;85731;-62
2021/12/19 05:48:10;;;;;;;7.70;5.60;;;;;;;5.20;90.86;100019.64;87366;1288;95611;-63
2021/12/19 05:50:24;;;;;;;11.30;6.00;;;;;;;5.18;91.05;100017.36;87333;1292;80557;-64
2021/12/19 05:52:34;;;;;;;;;;;;;;;5.20;90.77;100013.38;87369;1289;82506;-61
2021/12/19 05:54:44;;;;;;;9.30;6.10;;;;;;;5.24;90.84;100007.73;87375;1292;99257;-62
2021/12/19 05:56:56;;;;;;;9.40;6.60;;;;;;;5.25;90.75;100010.87;87386;1280;88604;-64
2021/12/19 05:59:06;;;;;;;11.00;5.40;;;;;;;5.28;90.84;100002.38;87332;1288;94570;-64
2021/12/19 06:01:16;;;;;;;10.70;6.80;;;;;;;5.26;90.91;100013.46;87360;1291;81675;-62
2021/12/19 06:03:31;;;;;;;8.50;6.00;;;;;;;5.24;90.80;100006.87;87357;1292;82144;-62
2021/12/19 06:05:43;;;;;;;8.70;5.70;;;;;;;5.18;90.78;100008.22;87342;1285;98235;-62
2021/12/19 06:07:56;;;;;;;9.10;5.90;;;;;;;5.22;90.88;100003.17;87368;1289;87853;-63
2021/12/19 06:10:06;;;;;;;10.70;5.50;;;;;;;5.23;90.77;99997.37;87316;1288;94332;-63
2021/12/19 06:12:18;;;;;;;10.20;5.80;;;;;;;5.21;90.88;99992.92;87375;1291;82385;-65
2021/12/19 06:14:33;;;;;;;7.80;5.20;;;;;;;5.23;90.80;99989.66;87374;1287;79988;-64
2021/12/19 06:16:42;;;;;;;6.60;4.60;;;;;;;5.24;90.80;99979.17;87400;1289;98144;-64
2021/12/19 06:18:54;;;;;;;10.00;4.90;;;;;;;5.25;90.82;99971.81;87358;1292;88647;-63
2021/12/19 06:21:04;;;;;;;7.40;5.10;;;;;;;5.24;90.69;99970.30;87344;1291;94958;-62
2021/12/19 06:23:14;;;;;;;8.80;4.20;;;;;;;5.26;90.75;99962.88;87375;1287;81341;-63
2021/12/19 06:25:22;;;;;;;9.60;4.20;;;;;;;5.30;90.76;99964.59;87374;1287;81404;-63
2021/12/19 06:27:31;;;;;;;9.40;4.10;;;;;;;5.32;90.72;99973.89;87341;1289;98919;-63
2021/12/19 06:29:44;;;;;;;9.30;4.10;;;;;;;5.30;90.83;99973.15;87368;1288;88187;-63
2021/12/19 06:31:56;;;;;;;7.10;3.50;;;;;;;5.31;90.77;99976.44;87336;1289;95337;-62
2021/12/19 06:34:09;;;;;;;8.30;3.40;;;;;;;5.30;90.81;99968.17;87335;1292;79830;-63
2021/12/19 06:36:21;;;;;;;5.90;3.60;;;;;;;5.27;90.78;99973.02;87380;1289;82198;-64
2021/12/19 06:38:30;;;;;;;6.20;3.70;;;;;;;5.26;90.80;99970.81;87356;1292;99784;-64
2021/12/19 06:40:42;;;;;;;8.20;4.10;;;;;;;5.26;90.67;99971.15;87371;1291;88728;-65
2021/12/19 06:42:52;;;;;;;7.50;3.40;;;;;;;5.25;90.77;99976.20;87355;1289;95132;-64
2021/12/19 06:45:04;;;;;;;6.30;3.30;;;;;;;5.26;90.78;99969.03;87360;1292;81709;-64
2021/12/19 06:47:14;;;;;;;7.10;3.60;;;;;;;5.29;90.60;99971.49;87385;1291;81775;-64
2021/12/19 06:49:23;;;;;;;7.80;3.40;;;;;;;5.32;90.67;99970.52;87370;1292;97697;-63
2021/12/19 06:51:33;;;;;;;7.50;3.30;;;;;;;5.31;90.62;99963.05;87240;1290;89040;-64
2021/12/19 06:53:46;;;;;;;7.30;3.40;;;;;;;5.30;90.71;99960.83;87351;1288;95531;-65
2021/12/19 06:55:55;;;;;;;5.90;3.10;;;;;;;5.31;90.64;99960.21;87280;1289;83139;-65
2021/12/19 06:58:07;;;;;;;5.00;3.20;;;;;;;5.33;90.59;99956.76;87349;1291;82347;-64
2021/12/19 07:00:21;;;;;;;6.70;3.40;;;;;;;5.35;90.68;99958.84;87355;1281;97783;-65
2021/12/19 07:02:28;;;;;;;;;;;;;;;5.36;90.51;99961.64;87389;1289;87211;-62
2021/12/19 07:04:40;;;;;;;6.80;2.80;;;;;;;5.37;90.46;99961.24;87334;1288;95555;-64
2021/12/19 07:06:53;;;;;;;4.40;2.60;;;;;;;5.37;90.55;99962.27;87322;1291;81207;-65
2021/12/19 07:09:03;;;;;;;5.90;2.60;;;;;;;5.38;90.59;99969.31;87376;1291;83269;-63
2021/12/19 07:11:16;;;;;;;6.20;2.90;;;;;;;5.43;90.48;99970.94;87378;1288;98349;-63
2021/12/19 07:13:25;;;;;;;7.60;2.90;;;;;;;5.42;90.39;99971.77;87385;1291;89327;-69
2021/12/19 07:15:35;;;;;;;5.80;3.00;;;;;;;5.45;90.46;99971.89;87370;1291;95656;-67
2021/12/19 07:17:44;;;;;;;4.90;2.50;;;;;;;5.44;90.43;99972.02;87213;1292;79407;-67
2021/12/19 07:19:54;;;;;;;8.40;3.60;;;;;;;5.42;90.58;99971.83;87344;1292;82711;-67
2021/12/19 07:22:04;;;;;;;7.50;2.90;;;;;;;5.44;90.38;99970.33;87380;1289;97786;-65
2021/12/19 07:24:13;;;;;;;6.60;3.00;;;;;;;5.48;90.54;99965.77;87381;1288;88063;-64
2021/12/19 07:26:22;;;;;;;5.50;3.30;;;;;;;5.48;90.40;99958.57;87392;1288;95339;-65
2021/12/19 07:28:31;;;;;;;6.10;3.40;;;;;;;5.49;90.37;99958.67;87344;1288;80963;-68
2021/12/19 07:30:41;;;;;;;7.70;3.60;;;;;;;5.47;90.33;99960.16;87385;1288;83286;-66
2021/12/19 07:32:50;;;;;;;8.50;4.00;;;;;;;5.45;90.27;99956.56;87379;1292;98544;-66
2021/12/19 07:34:59;;;;;;;5.90;3.60;;;;;;;5.46;90.35;99956.13;87372;1288;85496;-67
2021/12/19 07:37:09;;;;;;;8.80;4.20;;;;;;;5.39;90.40;99955.82;87401;1290;95429;-63
2021/12/19 07:39:26;;;;;;;8.20;3.80;;;;;;;5.41;90.44;99948.28;87368;1291;78810;-63
2021/12/19 07:41:35;;;;;;;9.20;4.30;;;;;;;5.42;90.41;99945.14;87232;1288;80273;-65
2021/12/19 07:43:44;;;;;;;7.50;4.20;;;;;;;5.43;90.40;99949.46;87382;1288;97344;-64
2021/12/19 07:45:53;;;;;;;8.10;4.40;;;;;;;5.43;90.32;99949.80;87369;1291;86814;-63
2021/12/19 07:48:02;;;;;;;7.90;3.90;;;;;;;5.44;90.41;99950.39;87379;1288;93568;-63
2021/12/19 07:50:14;;;;;;;7.40;4.40;;;;;;;5.44;90.55;99946.91;87379;1289;80037;-64
2021/12/19 07:52:25;;;;;;;9.90;4.80;;;;;;;5.46;90.54;99945.23;87398;1284;80457;-63
2021/12/19 07:54:35;;;;;;;9.50;4.30;;;;;;;5.44;90.41;99940.41;87356;1288;98068;-64
2021/12/19 07:56:48;;;;;;;7.40;4.20;;;;;;;5.47;90.39;99942.05;87372;1292;88798;-67
2021/12/19 07:58:56;;;;;;;8.10;4.40;;;;;;;5.50;90.45;99942.45;87344;1288;94725;-69
2021/12/19 08:01:06;;;;;;;7.70;4.70;;;;;;;5.50;90.46;99939.84;86958;1289;570915;-69
2021/12/19 08:03:16;;;;;;;8.10;4.50;;;;;;;5.49;90.45;99934.39;87404;1289;82068;-66
2021/12/19 08:05:26;;;;;;;9.00;5.30;;;;;;;5.50;90.30;99935.32;87346;1288;99692;-65
2021/12/19 08:07:38;;;;;;;8.60;4.40;;;;;;;5.50;90.45;99933.26;87210;1288;86199;-68
2021/12/19 08:10:00;;;;;;;8.00;4.50;;;;;;;5.51;90.32;99933.12;87376;1291;94903;-66
2021/12/19 08:12:16;;;;;;;9.10;4.30;;;;;;;5.49;90.20;99937.27;87214;1290;81334;-66
2021/12/19 08:14:29;;;;;;;6.30;4.00;;;;;;;5.50;90.26;99936.53;87406;1291;80606;-66
2021/12/19 08:16:41;;;;;;;8.70;4.10;;;;;;;5.56;90.22;99932.20;87403;1290;97211;-67
2021/12/19 08:18:52;;;;;;;7.40;3.90;;;;;;;5.57;90.25;99935.27;87421;1288;88296;-68
2021/12/19 08:21:05;;;;;;;7.50;4.30;;;;;;;5.60;90.13;99934.25;87351;1291;95289;-67
2021/12/19 08:23:18;;;;;;;10.20;4.20;;;;;;;5.60;90.09;99938.52;87381;1288;81627;-67
2021/12/19 08:25:31;;;;;;;8.30;3.60;;;;;;;5.63;89.96;99932.84;87377;1286;81424;-69
2021/12/19 08:27:43;;;;;;;10.60;4.40;;;;;;;5.62;89.90;99928.59;87206;1294;99013;-67
2021/12/19 08:29:54;;;;;;;9.40;4.10;;;;;;;5.61;90.06;99929.06;87359;1291;88678;-69
2021/12/19 08:32:04;;;;;;;7.60;3.80;;;;;;;5.64;90.00;99926.61;87391;1281;91937;-64
2021/12/19 08:34:17;;;;;;;7.50;3.50;;;;;;;5.62;89.77;99924.71;87411;1289;81994;-64
2021/12/19 08:36:30;;;;;;;10.10;4.00;;;;;;;5.66;89.76;99929.46;87400;1290;82974;-67
2021/12/19 08:38:39;;;;;;;7.80;3.90;;;;;;;5.67;89.86;99928.21;87386;1288;98090;-70
2021/12/19 08:40:50;;;;;;;5.70;4.10;;;;;;;5.74;89.62;99929.38;87413;1286;86949;-68
2021/12/19 08:43:02;;;;;;;7.10;3.50;;;;;;;5.76;89.59;99925.55;87399;1284;94398;-63
2021/12/19 08:45:15;;;;;;;8.90;4.00;;;;;;;5.73;89.61;99921.67;87334;1288;80245;-64
2021/12/19 08:47:25;;;;;;;9.40;3.90;;;;;;;5.74;89.63;99934.81;87420;1279;81866;-67
2021/12/19 08:49:39;;;;;;;8.00;3.70;;;;;;;5.77;89.32;99933.15;87369;1288;99847;-68
2021/12/19 08:51:53;;;;;;;7.00;3.40;;;;;;;5.77;89.18;99939.08;87351;1289;88028;-64
2021/12/19 08:54:03;;;;;;;7.00;4.00;;;;;;;5.75;89.10;99942.38;87164;1290;94710;-62
2021/12/19 08:56:15;;;;;;;8.30;3.60;;;;;;;5.72;89.13;99946.66;87158;1291;81204;-63
2021/12/19 08:58:25;;;;;;;8.80;3.80;;;;;;;5.71;89.08;99951.35;87181;1293;81974;-63
2021/12/19 09:00:39;;;;;;;8.30;4.20;;;;;;;5.78;89.13;99952.33;87180;1289;97940;-63
2021/12/19 09:02:53;;;;;;;6.30;3.30;;;;;;;5.81;89.12;99956.00;87192;1291;87948;-64
2021/12/19 09:05:04;;;;;;;6.10;3.30;;;;;;;5.80;89.01;99950.87;87178;1293;95284;-66
2021/12/19 09:07:15;;;;;;;8.30;2.80;;;;;;;5.83;88.93;99953.73;87195;1291;81309;-63
2021/12/19 09:09:25;;;;;;;6.60;3.10;;;;;;;5.88;88.77;99954.85;87199;1290;82232;-62
2021/12/19 09:11:38;;;;;;;23.10;11.40;;;;;;;5.83;88.77;99962.13;87205;1293;98601;-62
2021/12/19 09:13:48;;;;;;;16.40;9.30;;;;;;;5.83;88.76;99961.27;87095;1290;87112;-65
2021/12/19 09:16:03;;;;;;;5.90;2.80;;;;;;;5.84;88.69;99954.73;87193;1287;95996;-65
2021/12/19 09:18:15;;;;;;;6.20;2.60;;;;;;;5.83;88.50;99955.93;87182;1289;80586;-63
2021/12/19 09:20:29;;;;;;;7.20;2.70;;;;;;;5.82;88.51;99945.31;87194;1286;83294;-62
2021/12/19 09:22:41;;;;;;;6.90;2.90;;;;;;;5.79;88.15;99943.14;87211;1290;98146;-64
2021/12/19 09:24:51;;;;;;;8.30;3.20;;;;;;;5.80;88.14;99942.00;87198;1290;88226;-65
2021/12/19 09:27:03;;;;;;;6.70;2.70;;;;;;;5.82;88.10;99938.50;87195;1293;94663;-63
2021/12/19 09:29:13;;;;;;;6.80;2.50;;;;;;;5.86;87.90;99936.16;87170;1292;79342;-63
2021/12/19 09:31:24;;;;;;;11.10;3.40;;;;;;;5.86;88.01;99938.63;87195;1288;81894;-64
2021/12/19 09:33:33;;;;;;;7.70;2.70;;;;;;;5.85;87.87;99934.61;87174;1290;98744;-63
2021/12/19 09:35:43;;;;;;;6.80;3.00;;;;;;;5.87;87.93;99934.41;87192;1290;87553;-63
2021/12/19 09:37:52;;;;;;;8.00;2.70;;;;;;;5.88;87.75;99931.10;87227;1288;93126;-66
2021/12/19 09:40:03;;;;;;;8.50;3.00;;;;;;;5.91;87.81;99929.77;87192;1291;79726;-66
2021/12/19 09:42:15;;;;;;;7.40;3.10;;;;;;;5.97;87.69;99921.86;87210;1286;79804;-62
2021/12/19 09:44:25;;;;;;;6.50;2.80;;;;;;;6.01;87.65;99916.92;87207;1289;98652;-60
2021/12/19 09:46:41;;;;;;;7.50;2.50;;;;;;;6.08;87.57;99905.73;87166;1287;89385;-60
2021/12/19 09:48:52;;;;;;;6.70;2.90;;;;;;;6.15;87.49;99893.35;87159;1290;94170;-60
2021/12/19 09:51:02;;;;;;;6.50;2.50;;;;;;;6.34;87.54;99885.30;87171;1290;82450;-61
2021/12/19 09:53:14;;;;;;;7.30;2.30;;;;;;;6.49;87.38;99874.95;87289;1288;81667;-64
2021/12/19 09:55:28;;;;;;;9.10;3.10;;;;;;;6.65;87.06;99872.23;87417;1288;99134;-63
2021/12/19 09:57:41;;;;;;;5.50;3.00;;;;;;;6.70;86.92;99887.52;87440;1288;88781;-61
2021/12/19 09:59:52;;;;;;;7.40;3.30;;;;;;;6.65;86.80;99885.23;87378;1288;95459;-61
2021/12/19 10:02:01;;;;;;;6.80;2.90;;;;;;;6.65;86.60;99888.88;87398;1287;78567;-62
2021/12/19 10:04:39;;;;;;;7.30;2.80;;;;;;;6.60;86.29;99890.13;87397;1288;82528;-63
2021/12/19 10:07:07;;;;;;;7.80;2.90;;;;;;;6.55;85.95;99879.73;87420;1288;98008;-61
2021/12/19 10:09:21;;;;;;;6.80;2.50;;;;;;;6.50;85.85;99873.86;87409;1288;88676;-61
2021/12/19 10:11:47;;;;;;;4.30;2.10;;;;;;;6.48;85.99;99871.22;87386;1291;95661;-61
2021/12/19 10:13:56;;;;;;;5.50;2.60;;;;;;;6.45;85.86;99863.80;87395;1288;81619;-68
2021/12/19 10:16:28;;;;;;;7.20;2.60;;;;;;;6.42;85.82;99858.31;87389;1289;83095;-62
2021/12/19 10:18:52;;;;;;;7.80;2.40;;;;;;;6.45;85.87;99837.40;87384;1289;99369;-62
2021/12/19 10:21:04;;;;;;;7.30;2.60;;;;;;;6.50;85.71;99848.98;87414;1281;85792;-64
2021/12/19 10:23:22;;;;;;;6.00;2.60;;;;;;;6.56;85.77;99844.66;87390;1288;95560;-62
2021/12/19 10:25:35;;;;;;;5.50;3.00;;;;;;;6.62;85.66;99834.63;87412;1287;80655;-61
2021/12/19 10:27:47;;;;;;;9.20;3.40;;;;;;;6.58;85.32;99821.66;87410;1289;83146;-64
2021/12/19 10:30:01;;;;;;;8.90;3.40;;;;;;;6.51;85.39;99823.20;87424;1288;98843;-64
2021/12/19 10:32:11;;;;;;;7.50;3.30;;;;;;;6.54;85.50;99818.70;87370;1288;86734;-65
2021/12/19 10:34:25;;;;;;;9.60;3.20;;;;;;;6.57;85.35;99814.95;87225;1288;93094;-64
2021/12/19 10:36:44;;;;;;;11.10;3.30;;;;;;;6.56;85.27;99818.33;87422;1288;79340;-64
2021/12/19 10:38:56;;;;;;;9.10;3.20;;;;;;;6.60;85.06;99817.33;87374;1288;82295;-65
2021/12/19 10:41:13;;;;;;;7.10;3.20;;;;;;;6.63;85.16;99818.98;87381;1288;99209;-62
2021/12/19 10:43:24;;;;;;;9.10;3.00;;;;;;;6.60;84.93;99816.06;87393;1288;88598;-65
2021/12/19 10:45:43;;;;;;;6.90;2.60;;;;;;;6.55;84.95;99811.49;87361;1287;94478;-61
2021/12/19 10:47:52;;;;;;;8.40;2.80;;;;;;;6.49;84.99;99819.41;87429;1285;78848;-61
2021/12/19 10:50:03;;;;;;;6.40;2.70;;;;;;;6.47;84.75;99813.01;87344;1288;81851;-62
2021/12/19 10:52:31;;;;;;;7.70;2.70;;;;;;;6.45;84.69;99810.15;87411;1288;98918;-65
2021/12/19 10:54:58;;;;;;;9.80;2.50;;;;;;;6.43;84.66;99809.22;87412;1284;88561;-69
2021/12/19 10:57:15;;;;;;;7.00;2.80;;;;;;;6.43;84.50;99809.95;87384;1291;94359;-63
2021/12/19 10:59:30;;;;;;;8.20;3.20;;;;;;;6.44;84.80;99804.11;87363;1288;79067;-61
2021/12/19 11:01:41;;;;;;;6.90;2.90;;;;;;;6.41;84.63;99796.74;87383;1288;80959;-65
2021/12/19 11:04:09;;;;;;;6.10;2.40;;;;;;;6.43;84.72;99795.80;87410;1284;97434;-65
2021/12/19 11:06:26;;;;;;;5.30;2.40;;;;;;;6.49;84.69;99793.84;87418;1288;88595;-61
2021/12/19 11:08:39;;;;;;;7.00;2.80;;;;;;;6.52;84.83;99794.73;87395;1291;94348;-61
2021/12/19 11:10:53;;;;;;;9.50;3.30;;;;;;;6.58;84.63;99784.23;87398;1288;81777;-61
2021/12/19 11:13:12;;;;;;;;;;;;;;;6.68;84.68;99782.91;87400;1289;81518;-65
2021/12/19 11:15:22;;;;;;;7.10;3.00;;;;;;;6.70;84.61;99783.96;87418;1288;99252;-64